Time;durP1;ratioP1;P1;durP2;ratioP2;P2;SDS_P1;SDS_P2;PMS_P1;PMS_P2;Temp;Humidity;BMP_temperature;BMP_pressure;BME280_temperature;BME280_humidity;BME280_pressure;Samples;Min_cycle;Max_cycle;Signal;HPM_P1;HPM_P2
2022/11/16 00:02:05;;;;;;;2.10;1.65;;;17.70;64.60;;;;;;5053333;28;20179;-68
2022/11/16 00:04:30;;;;;;;3.30;1.48;;;17.70;64.60;;;;;;5051638;28;20175;-71
2022/11/16 00:06:56;;;;;;;5.68;1.70;;;17.70;64.60;;;;;;5054398;28;20176;-69
2022/11/16 00:09:22;;;;;;;1.67;1.58;;;17.70;64.60;;;;;;5053916;28;20174;-69
2022/11/16 00:11:48;;;;;;;2.03;1.42;;;17.70;64.60;;;;;;5053196;28;20175;-69
2022/11/16 00:14:13;;;;;;;5.22;2.33;;;17.70;64.50;;;;;;5053503;28;20261;-68
2022/11/16 00:16:39;;;;;;;2.42;1.40;;;17.70;64.50;;;;;;5053043;28;20211;-70
2022/11/16 00:19:05;;;;;;;1.83;1.67;;;17.70;64.60;;;;;;5052965;28;20213;-68
2022/11/16 00:21:30;;;;;;;3.80;1.40;;;17.60;64.50;;;;;;5053509;28;20178;-69
2022/11/16 00:23:56;;;;;;;2.17;1.63;;;17.60;64.40;;;;;;5052938;28;20199;-69
2022/11/16 00:26:21;;;;;;;2.50;1.45;;;17.60;64.50;;;;;;5052181;28;20634;-69
2022/11/16 00:28:47;;;;;;;2.40;1.33;;;17.60;64.50;;;;;;5053354;28;20256;-69
2022/11/16 00:31:13;;;;;;;3.00;1.70;;;17.60;64.50;;;;;;5053215;28;20187;-69
2022/11/16 00:33:38;;;;;;;2.42;1.70;;;17.60;64.70;;;;;;5052623;28;20171;-71
2022/11/16 00:36:05;;;;;;;2.00;1.80;;;17.60;64.60;;;;;;5053244;28;20212;-72
2022/11/16 00:38:31;;;;;;;2.03;1.52;;;17.60;64.70;;;;;;5052245;28;20187;-70
2022/11/16 00:40:56;;;;;;;3.75;1.52;;;17.60;64.70;;;;;;5053012;28;20181;-69
2022/11/16 00:43:22;;;;;;;2.47;1.45;;;17.60;64.70;;;;;;5053285;28;20184;-68
2022/11/16 00:45:47;;;;;;;2.95;1.60;;;17.60;64.70;;;;;;5051629;28;20179;-69
2022/11/16 00:48:13;;;;;;;1.65;1.45;;;17.50;64.70;;;;;;5052712;28;20190;-68
2022/11/16 00:50:38;;;;;;;3.85;1.80;;;17.50;64.80;;;;;;5053001;28;20175;-69
2022/11/16 00:53:04;;;;;;;2.67;1.80;;;17.60;64.80;;;;;;5052789;28;20241;-69
2022/11/16 00:55:30;;;;;;;1.60;1.50;;;17.60;64.80;;;;;;5052919;28;20175;-68
2022/11/16 00:57:55;;;;;;;3.63;1.80;;;17.50;64.80;;;;;;5053120;28;20211;-69
2022/11/16 01:00:21;;;;;;;1.60;1.50;;;17.50;64.80;;;;;;5051038;28;20176;-69
2022/11/16 01:02:46;;;;;;;3.63;1.65;;;17.50;64.90;;;;;;5052707;28;20171;-70
2022/11/16 01:05:12;;;;;;;2.03;1.70;;;17.50;64.90;;;;;;5052300;28;20186;-69
2022/11/16 01:07:38;;;;;;;1.45;1.35;;;17.50;65.00;;;;;;5052105;28;20175;-69
2022/11/16 01:10:09;;;;;;;1.75;1.60;;;17.50;64.90;;;;;;5052591;28;20668;-69
2022/11/16 01:12:35;;;;;;;1.83;1.52;;;17.40;64.90;;;;;;5052528;28;20241;-68
2022/11/16 01:15:00;;;;;;;2.25;1.58;;;17.40;64.90;;;;;;5051460;28;20686;-69
2022/11/16 01:17:26;;;;;;;3.42;1.63;;;17.40;64.90;;;;;;5052809;28;20665;-68
2022/11/16 01:19:52;;;;;;;2.05;1.67;;;17.40;64.90;;;;;;5051938;28;20717;-68
2022/11/16 01:22:17;;;;;;;3.25;1.80;;;17.50;65.00;;;;;;5051894;28;20179;-68
2022/11/16 01:24:45;;;;;;;4.32;1.80;;;17.50;65.10;;;;;;5051879;28;20212;-68
2022/11/16 01:27:10;;;;;;;2.10;1.60;;;17.50;65.10;;;;;;5052813;28;20641;-69
2022/11/16 01:29:36;;;;;;;3.33;2.03;;;17.40;64.90;;;;;;5051671;28;20216;-69
2022/11/16 01:32:01;;;;;;;2.15;1.50;;;17.40;65.00;;;;;;5052717;28;20653;-70
2022/11/16 01:34:27;;;;;;;2.88;1.92;;;17.40;65.00;;;;;;5052391;28;20198;-70
2022/11/16 01:36:52;;;;;;;3.28;2.08;;;17.40;65.10;;;;;;5051818;28;20700;-69
2022/11/16 01:39:18;;;;;;;1.83;1.65;;;17.40;65.10;;;;;;5052343;28;20535;-69
2022/11/16 01:41:44;;;;;;;2.60;1.40;;;17.40;65.10;;;;;;5051264;28;20642;-68
2022/11/16 01:44:31;;;;;;;1.70;1.60;;;17.40;65.10;;;;;;5051470;28;20209;-68
2022/11/16 01:47:01;;;;;;;3.10;2.08;;;17.40;65.10;;;;;;5032885;28;20180;-68
2022/11/16 01:49:28;;;;;;;2.33;1.48;;;17.30;65.10;;;;;;5039652;28;20171;-67
2022/11/16 01:52:07;;;;;;;1.88;1.70;;;17.40;65.20;;;;;;5035029;28;20183;-69
2022/11/16 01:54:35;;;;;;;2.13;1.70;;;17.30;65.20;;;;;;5051265;28;20634;-69
2022/11/16 01:57:01;;;;;;;1.98;1.65;;;17.30;65.20;;;;;;5030263;28;20677;-69
2022/11/16 01:59:27;;;;;;;1.95;1.67;;;17.30;65.20;;;;;;5032426;28;20233;-69
2022/11/16 02:01:53;;;;;;;3.55;1.80;;;17.30;65.30;;;;;;5032954;28;20626;-69
2022/11/16 02:04:19;;;;;;;2.17;1.63;;;17.30;65.20;;;;;;5032121;28;20266;-70
2022/11/16 02:07:18;;;;;;;2.85;1.65;;;17.30;65.40;;;;;;5032179;28;20270;-69
2022/11/16 02:09:52;;;;;;;1.70;1.60;;;17.30;65.20;;;;;;5030840;28;20618;-68
2022/11/16 02:12:54;;;;;;;1.83;1.67;;;17.30;65.20;;;;;;5035177;28;20171;-69
2022/11/16 02:15:42;;;;;;;2.25;1.60;;;17.30;65.20;;;;;;5042343;28;20653;-68
2022/11/16 02:18:14;;;;;;;2.33;1.85;;;17.30;65.20;;;;;;5047419;28;20229;-68
2022/11/16 02:20:51;;;;;;;2.08;1.88;;;17.30;65.30;;;;;;5055373;28;20174;-68
2022/11/16 02:23:35;;;;;;;2.20;1.50;;;17.20;65.20;;;;;;5056249;28;20236;-67
2022/11/16 02:26:19;;;;;;;2.00;1.80;;;17.30;65.40;;;;;;5039020;28;20175;-67
2022/11/16 02:28:45;;;;;;;2.05;1.58;;;17.20;65.30;;;;;;5055893;28;20190;-69
2022/11/16 02:31:15;;;;;;;2.00;1.63;;;17.30;65.40;;;;;;5055156;28;20171;-68
2022/11/16 02:33:41;;;;;;;1.48;1.38;;;17.30;65.30;;;;;;5054389;28;20181;-70
2022/11/16 02:36:08;;;;;;;2.13;1.85;;;17.30;65.40;;;;;;5037127;28;20199;-69
2022/11/16 02:38:38;;;;;;;1.70;1.48;;;17.20;65.30;;;;;;5036544;28;20565;-68
2022/11/16 02:41:11;;;;;;;1.55;1.40;;;17.20;65.30;;;;;;5038109;28;20183;-68
2022/11/16 02:43:42;;;;;;;2.45;1.70;;;17.20;65.30;;;;;;5054296;28;20558;-68
2022/11/16 02:46:21;;;;;;;2.70;1.67;;;17.20;65.40;;;;;;5053741;28;20236;-69
2022/11/16 02:48:49;;;;;;;2.20;1.45;;;17.20;65.40;;;;;;5054238;28;20205;-68
2022/11/16 02:51:14;;;;;;;2.10;1.63;;;17.20;65.50;;;;;;5054046;28;20187;-68
2022/11/16 02:53:49;;;;;;;1.90;1.70;;;17.20;65.40;;;;;;5035907;28;20175;-68
2022/11/16 02:56:14;;;;;;;1.63;1.52;;;17.20;65.40;;;;;;5054398;28;20288;-67
2022/11/16 02:58:40;;;;;;;1.75;1.40;;;17.20;65.50;;;;;;5053858;28;20262;-69
2022/11/16 03:01:07;;;;;;;1.63;1.52;;;17.20;65.40;;;;;;5053565;28;20258;-69
2022/11/16 03:03:54;;;;;;;1.90;1.70;;;17.20;65.50;;;;;;5036828;28;20185;-68
2022/11/16 03:06:22;;;;;;;2.03;1.20;;;17.20;65.50;;;;;;5053297;28;20974;-69
2022/11/16 03:09:03;;;;;;;1.52;1.42;;;17.20;65.50;;;;;;5037239;28;20241;-68
2022/11/16 03:14:15;;;;;;;1.85;1.55;;;17.10;65.40;;;;;;5052479;28;20264;-68
2022/11/16 03:16:47;;;;;;;2.83;1.88;;;17.20;65.40;;;;;;5051888;28;20622;-68
2022/11/16 03:19:14;;;;;;;1.73;1.58;;;17.20;65.60;;;;;;5053365;28;20202;-68
2022/11/16 03:21:45;;;;;;;2.40;1.60;;;17.10;65.40;;;;;;5053798;28;20183;-67
2022/11/16 03:24:11;;;;;;;1.65;1.55;;;17.20;65.60;;;;;;5053094;28;20175;-68
2022/11/16 03:26:58;;;;;;;1.50;1.40;;;17.10;65.50;;;;;;5054326;28;20178;-68
2022/11/16 03:29:30;;;;;;;1.60;1.50;;;17.10;65.40;;;;;;5053159;28;20202;-68
2022/11/16 03:31:58;;;;;;;1.77;1.30;;;17.10;65.50;;;;;;5054318;28;20194;-70
2022/11/16 03:34:26;;;;;;;1.90;1.70;;;17.10;65.50;;;;;;5036804;28;20179;-70
2022/11/16 03:36:51;;;;;;;1.50;1.40;;;17.10;65.50;;;;;;5036652;28;20207;-68
2022/11/16 03:39:20;;;;;;;1.70;1.60;;;17.10;65.50;;;;;;5054745;28;20244;-68
2022/11/16 03:41:45;;;;;;;2.05;1.85;;;17.10;65.60;;;;;;5035871;28;20312;-67
2022/11/16 03:44:11;;;;;;;1.35;1.30;;;17.10;65.60;;;;;;5053583;28;20191;-68
2022/11/16 03:46:37;;;;;;;2.70;1.60;;;17.10;65.60;;;;;;5036506;28;20179;-68
2022/11/16 03:49:02;;;;;;;1.60;1.50;;;17.10;65.60;;;;;;5052539;28;20171;-68
2022/11/16 03:51:28;;;;;;;2.20;1.60;;;17.10;65.60;;;;;;5052932;28;20190;-68
2022/11/16 03:53:53;;;;;;;1.38;1.27;;;17.10;65.60;;;;;;5054688;28;20536;-68
2022/11/16 03:56:19;;;;;;;1.70;1.60;;;17.10;65.60;;;;;;5053673;28;20693;-69
2022/11/16 03:58:44;;;;;;;1.70;1.60;;;17.10;65.70;;;;;;5053107;28;20541;-68
2022/11/16 04:01:10;;;;;;;3.08;1.60;;;17.10;65.60;;;;;;5053967;28;20556;-68
2022/11/16 04:03:35;;;;;;;1.58;1.42;;;17.10;65.60;;;;;;5053337;28;20249;-68
2022/11/16 04:25:22;;;;;;;1.58;1.48;;;17.00;65.70;;;;;;5050938;28;20691;-67
2022/11/16 04:37:47;;;;;;;1.80;1.58;;;17.00;65.60;;;;;;5050713;28;20194;-71
2022/11/16 04:38:48;;;;;;;1.77;1.67;;;17.00;65.70;;;;;;5051335;28;20194;-70
2022/11/16 04:43:57;;;;;;;1.70;1.60;;;17.00;65.70;;;;;;5052134;28;20186;-69
2022/11/16 04:49:07;;;;;;;2.00;1.90;;;17.00;65.70;;;;;;5052068;28;20172;-68
2022/11/16 04:51:32;;;;;;;1.80;1.60;;;17.00;65.80;;;;;;5051050;28;20179;-69
2022/11/16 04:53:58;;;;;;;2.00;1.58;;;17.00;65.70;;;;;;5052191;28;20217;-69
2022/11/16 04:56:23;;;;;;;1.92;1.67;;;17.00;65.70;;;;;;5051544;28;20229;-70
2022/11/16 04:58:49;;;;;;;2.35;1.52;;;17.00;65.80;;;;;;5050253;28;20171;-69
2022/11/16 05:01:14;;;;;;;1.23;1.13;;;16.90;65.70;;;;;;5051825;28;20179;-68
2022/11/16 05:03:40;;;;;;;1.52;1.42;;;17.00;65.70;;;;;;5050805;28;20537;-70
2022/11/16 05:06:06;;;;;;;1.80;1.60;;;16.90;65.70;;;;;;5050228;28;20186;-69
2022/11/16 05:08:31;;;;;;;1.45;1.35;;;16.90;65.70;;;;;;5050875;28;20266;-70
2022/11/16 05:10:57;;;;;;;1.27;1.17;;;16.90;65.70;;;;;;5051003;28;20171;-69
2022/11/16 05:13:22;;;;;;;1.45;1.35;;;16.90;65.70;;;;;;5050285;28;20562;-70
2022/11/16 05:15:48;;;;;;;1.55;1.45;;;16.90;65.70;;;;;;5050971;28;20927;-69
2022/11/16 05:18:14;;;;;;;1.40;1.30;;;17.00;65.80;;;;;;5048567;28;20182;-68
2022/11/16 05:26:07;;;;;;;1.63;1.52;;;16.90;65.80;;;;;;5050671;28;20232;-69
2022/11/16 05:28:33;;;;;;;1.52;1.42;;;16.90;65.90;;;;;;5050382;28;20171;-70
2022/11/16 05:30:58;;;;;;;1.35;1.25;;;16.90;65.80;;;;;;5051113;28;20171;-70
2022/11/16 05:33:24;;;;;;;2.30;1.95;;;16.90;65.80;;;;;;5051070;28;20179;-71
2022/11/16 05:35:50;;;;;;;1.42;1.33;;;16.90;65.80;;;;;;5050154;28;20522;-70
2022/11/16 05:38:16;;;;;;;1.55;1.40;;;16.90;65.80;;;;;;5051106;28;20183;-71
2022/11/16 05:40:42;;;;;;;1.75;1.42;;;16.90;65.80;;;;;;5051337;28;20171;-70
2022/11/16 05:43:07;;;;;;;1.70;1.42;;;16.90;65.80;;;;;;5051878;28;20290;-69
2022/11/16 05:45:33;;;;;;;1.52;1.42;;;16.90;65.90;;;;;;5052323;28;20599;-70
2022/11/16 05:47:58;;;;;;;1.23;1.10;;;16.90;65.80;;;;;;5055310;28;20262;-69
2022/11/16 05:50:24;;;;;;;1.35;1.25;;;16.90;65.80;;;;;;5056896;28;20252;-70
2022/11/16 05:52:49;;;;;;;1.35;1.30;;;16.90;65.80;;;;;;5057344;28;20303;-70
2022/11/16 05:55:15;;;;;;;1.38;1.27;;;16.80;65.70;;;;;;5055900;28;20652;-69
2022/11/16 05:57:40;;;;;;;1.35;1.25;;;16.90;65.80;;;;;;5056273;28;20213;-70
2022/11/16 06:00:07;;;;;;;1.20;1.10;;;16.90;65.70;;;;;;5056723;28;20284;-69
2022/11/16 06:02:32;;;;;;;1.30;1.10;;;16.80;65.70;;;;;;5055314;28;20642;-70
2022/11/16 06:04:58;;;;;;;1.48;1.38;;;16.90;65.80;;;;;;5056107;28;20220;-70
2022/11/16 06:07:23;;;;;;;1.50;1.20;;;16.80;65.70;;;;;;5056275;28;20652;-69
2022/11/16 06:09:49;;;;;;;1.63;1.52;;;16.90;65.80;;;;;;5055516;28;20186;-69
2022/11/16 06:12:14;;;;;;;1.52;1.30;;;16.80;65.70;;;;;;5054552;28;20241;-69
2022/11/16 06:14:40;;;;;;;1.40;1.30;;;16.80;65.70;;;;;;5054072;28;20296;-69
2022/11/16 06:17:05;;;;;;;1.38;1.27;;;16.80;65.70;;;;;;5053218;28;20557;-69
2022/11/16 06:19:31;;;;;;;1.58;1.48;;;16.80;65.70;;;;;;5054008;28;20719;-69
2022/11/16 06:21:56;;;;;;;1.50;1.40;;;16.80;65.70;;;;;;5054886;28;20168;-69
2022/11/16 06:24:22;;;;;;;1.25;1.15;;;16.80;65.70;;;;;;5053874;28;20232;-68
2022/11/16 06:26:48;;;;;;;1.88;1.20;;;16.80;65.70;;;;;;5053818;28;20611;-70
2022/11/16 06:29:13;;;;;;;1.20;1.10;;;16.80;65.80;;;;;;5054224;28;20167;-69
2022/11/16 06:31:39;;;;;;;1.30;1.20;;;16.80;65.70;;;;;;5052897;28;20634;-70
2022/11/16 06:34:04;;;;;;;1.48;1.38;;;16.80;65.80;;;;;;5053663;28;20182;-71
2022/11/16 06:36:30;;;;;;;1.40;1.30;;;16.80;65.80;;;;;;5053863;28;20187;-70
2022/11/16 06:38:57;;;;;;;1.20;1.10;;;16.80;65.80;;;;;;5053428;28;20171;-69
2022/11/16 06:41:22;;;;;;;1.30;1.20;;;16.80;65.80;;;;;;5050513;28;20785;-69
2022/11/16 06:43:48;;;;;;;1.10;1.00;;;16.80;65.80;;;;;;5053450;28;20261;-68
2022/11/16 06:46:13;;;;;;;1.50;1.40;;;16.80;65.70;;;;;;5052885;28;20273;-69
2022/11/16 06:48:39;;;;;;;1.83;1.70;;;16.80;65.80;;;;;;5053301;28;20183;-69
2022/11/16 06:51:04;;;;;;;1.60;1.50;;;16.80;65.70;;;;;;5053515;28;20172;-68
2022/11/16 06:53:30;;;;;;;1.30;1.20;;;16.80;65.70;;;;;;5053370;28;20183;-69
2022/11/16 06:56:00;;;;;;;1.98;1.45;;;16.80;65.80;;;;;;5053399;28;20171;-69
2022/11/16 06:58:28;;;;;;;1.35;1.25;;;16.70;65.70;;;;;;5051492;28;20927;-69
2022/11/16 07:00:54;;;;;;;1.38;1.27;;;16.80;65.70;;;;;;5053643;28;20183;-70
2022/11/16 07:03:19;;;;;;;1.00;1.00;;;16.70;65.70;;;;;;5053187;28;20193;-69
2022/11/16 07:05:45;;;;;;;1.60;1.50;;;16.70;65.70;;;;;;5052787;28;20617;-69
2022/11/16 07:08:10;;;;;;;1.52;1.20;;;16.70;65.70;;;;;;5053410;28;20263;-68
2022/11/16 07:10:37;;;;;;;1.20;1.10;;;16.70;65.70;;;;;;5053306;28;20262;-69
2022/11/16 07:13:03;;;;;;;1.33;1.20;;;16.70;65.70;;;;;;5052341;28;20247;-69
2022/11/16 07:15:29;;;;;;;1.40;1.30;;;16.70;65.70;;;;;;5052784;28;20177;-69
2022/11/16 07:17:54;;;;;;;1.42;1.33;;;16.70;65.70;;;;;;5053124;28;20970;-69
2022/11/16 07:20:20;;;;;;;1.10;1.10;;;16.70;66.60;;;;;;5052556;28;20245;-69
2022/11/16 07:22:45;;;;;;;1.30;1.20;;;16.70;65.70;;;;;;5052414;28;20202;-69
2022/11/16 07:25:11;;;;;;;0.95;0.95;;;16.70;65.70;;;;;;5051183;28;20179;-68
2022/11/16 07:27:36;;;;;;;1.02;1.02;;;16.70;65.70;;;;;;5052069;28;20183;-69
2022/11/16 07:30:02;;;;;;;1.13;1.13;;;16.70;65.70;;;;;;5053258;28;20178;-69
2022/11/16 07:32:29;;;;;;;1.50;1.40;;;16.70;65.70;;;;;;5052651;28;20597;-71
2022/11/16 07:34:55;;;;;;;2.03;1.10;;;16.70;65.70;;;;;;5052294;28;20258;-70
2022/11/16 07:37:20;;;;;;;1.73;1.17;;;16.70;65.60;;;;;;5053006;28;20294;-69
2022/11/16 07:39:46;;;;;;;1.30;1.20;;;16.70;65.70;;;;;;5052604;28;20254;-70
2022/11/16 07:42:11;;;;;;;1.23;1.20;;;16.80;65.70;;;;;;5053864;28;20218;-69
2022/11/16 07:44:37;;;;;;;2.28;1.63;;;16.80;65.70;;;;;;5054446;28;20645;-69
2022/11/16 07:47:04;;;;;;;1.60;1.20;;;16.90;65.50;;;;;;5054171;28;20205;-70
2022/11/16 07:49:29;;;;;;;1.10;1.00;;;17.00;65.40;;;;;;5053750;28;20182;-69
2022/11/16 07:51:55;;;;;;;1.05;0.95;;;17.20;65.20;;;;;;5054388;28;20254;-69
2022/11/16 07:54:20;;;;;;;1.27;1.17;;;17.30;65.00;;;;;;5054517;28;20634;-69
2022/11/16 07:56:46;;;;;;;0.98;0.98;;;17.30;64.90;;;;;;5051788;28;20228;-68
2022/11/16 07:59:11;;;;;;;1.15;1.00;;;17.40;64.60;;;;;;5052981;28;20175;-68
2022/11/16 08:01:37;;;;;;;1.00;1.00;;;17.50;64.40;;;;;;5053281;28;20170;-69
2022/11/16 08:04:02;;;;;;;1.25;0.93;;;17.60;64.20;;;;;;5054215;28;20592;-68
2022/11/16 08:06:29;;;;;;;0.95;0.90;;;17.70;64.10;;;;;;5054052;28;20171;-68
2022/11/16 08:08:55;;;;;;;0.82;0.82;;;17.70;63.90;;;;;;5052778;28;20183;-72
2022/11/16 08:11:21;;;;;;;3.28;1.33;;;17.70;63.90;;;;;;5053936;28;20179;-71
2022/11/16 08:13:46;;;;;;;2.17;1.25;;;17.70;64.00;;;;;;5053540;28;20587;-70
2022/11/16 08:16:14;;;;;;;2.25;1.48;;;17.70;64.30;;;;;;5053097;28;20258;-72
2022/11/16 08:18:40;;;;;;;3.85;1.40;;;17.70;64.70;;;;;;5051577;28;20195;-69
2022/11/16 08:21:06;;;;;;;4.40;1.65;;;17.70;64.90;;;;;;5052084;28;20183;-70
2022/11/16 08:23:32;;;;;;;2.90;1.30;;;17.80;65.50;;;;;;5051196;28;20194;-69
2022/11/16 08:25:58;;;;;;;4.85;1.60;;;17.90;65.70;;;;;;5050608;28;20167;-68
2022/11/16 08:28:25;;;;;;;4.00;1.50;;;17.90;65.80;;;;;;5048749;28;20175;-71
2022/11/16 08:30:51;;;;;;;9.18;1.77;;;17.90;65.70;;;;;;5050891;28;20229;-68
2022/11/16 08:33:18;;;;;;;3.30;1.50;;;18.00;65.90;;;;;;5051554;28;20650;-70
2022/11/16 08:35:43;;;;;;;5.53;1.95;;;18.00;65.80;;;;;;5050524;28;20591;-70
2022/11/16 08:38:09;;;;;;;3.58;1.52;;;18.00;65.90;;;;;;5050656;28;20202;-74
2022/11/16 08:40:36;;;;;;;3.35;1.50;;;18.00;65.90;;;;;;5051365;28;20171;-77
2022/11/16 08:43:01;;;;;;;4.35;1.48;;;18.10;65.90;;;;;;5051093;28;20206;-73
2022/11/16 08:45:27;;;;;;;6.95;1.80;;;18.00;65.90;;;;;;5049413;28;20206;-78
2022/11/16 08:47:52;;;;;;;5.25;1.35;;;18.00;66.30;;;;;;5050543;28;20179;-73
2022/11/16 08:50:18;;;;;;;4.05;1.92;;;18.00;66.20;;;;;;5050223;28;20203;-75
2022/11/16 08:52:44;;;;;;;4.00;1.73;;;18.00;66.30;;;;;;5049514;28;20175;-73
2022/11/16 08:55:09;;;;;;;5.32;1.77;;;17.90;66.30;;;;;;5047939;28;20179;-70
2022/11/16 08:57:35;;;;;;;7.72;2.03;;;17.90;66.40;;;;;;5046890;28;20258;-68
2022/11/16 09:00:01;;;;;;;6.55;1.85;;;17.90;66.60;;;;;;5050527;28;20175;-70
2022/11/16 09:02:26;;;;;;;3.92;1.60;;;17.90;66.60;;;;;;5048439;28;20191;-69
2022/11/16 09:04:52;;;;;;;9.43;2.25;;;17.80;66.60;;;;;;5047847;28;20258;-70
2022/11/16 09:07:18;;;;;;;8.80;1.75;;;17.70;67.10;;;;;;5053372;28;20302;-71
2022/11/16 09:09:43;;;;;;;8.27;2.17;;;17.70;67.10;;;;;;5051230;28;20676;-71
2022/11/16 09:12:09;;;;;;;9.50;1.77;;;17.80;67.30;;;;;;5045705;28;20183;-71
2022/11/16 09:14:34;;;;;;;5.25;2.00;;;17.70;67.50;;;;;;5048677;28;20222;-72
2022/11/16 09:17:00;;;;;;;7.45;2.30;;;17.80;67.40;;;;;;5053107;28;20248;-73
2022/11/16 09:19:25;;;;;;;2.92;1.63;;;17.80;67.60;;;;;;5051471;28;20175;-66
2022/11/16 09:21:51;;;;;;;4.78;2.22;;;17.90;67.70;;;;;;5049087;28;20171;-66
2022/11/16 09:24:16;;;;;;;4.20;1.67;;;17.80;67.50;;;;;;5049162;28;20170;-67
2022/11/16 09:26:42;;;;;;;4.00;1.40;;;17.90;67.40;;;;;;5047214;28;20171;-66
2022/11/16 09:29:10;;;;;;;5.55;1.70;;;17.90;67.70;;;;;;5046824;28;20175;-67
2022/11/16 09:31:36;;;;;;;6.75;1.85;;;17.90;67.90;;;;;;5050005;28;20262;-73
2022/11/16 09:34:01;;;;;;;9.10;1.92;;;17.90;67.80;;;;;;5051476;28;20281;-73
2022/11/16 09:36:27;;;;;;;7.97;1.70;;;17.90;67.50;;;;;;5052164;28;20293;-73
2022/11/16 09:38:53;;;;;;;7.38;2.10;;;17.90;67.40;;;;;;5052735;28;20177;-73
2022/11/16 09:41:40;;;;;;;5.38;1.80;;;17.80;67.50;;;;;;5052008;28;20175;-71
2022/11/16 09:44:15;;;;;;;5.72;1.50;;;17.80;67.70;;;;;;5052822;28;20171;-71
2022/11/16 09:46:44;;;;;;;5.07;1.90;;;17.80;67.80;;;;;;5051048;28;20521;-71
2022/11/16 09:49:13;;;;;;;6.93;1.80;;;17.80;67.90;;;;;;5050768;28;20179;-71
2022/11/16 09:51:39;;;;;;;5.75;2.05;;;17.70;67.90;;;;;;5051242;28;20182;-72
2022/11/16 09:54:06;;;;;;;4.22;1.92;;;17.70;67.90;;;;;;5034032;28;20538;-72
2022/11/16 09:56:36;;;;;;;4.68;1.77;;;17.70;68.00;;;;;;5034753;28;20217;-71
2022/11/16 09:59:11;;;;;;;8.70;2.15;;;17.70;67.90;;;;;;5051576;28;20585;-72
2022/11/16 10:01:46;;;;;;;3.17;1.45;;;17.70;68.00;;;;;;5050449;28;20178;-72
2022/11/16 10:04:14;;;;;;;4.20;1.55;;;17.60;67.80;;;;;;5051466;28;20186;-72
2022/11/16 10:07:01;;;;;;;4.05;1.70;;;17.70;67.80;;;;;;5050876;28;20171;-73
2022/11/16 10:09:27;;;;;;;6.43;1.63;;;17.60;67.70;;;;;;5050787;28;20183;-72
2022/11/16 10:12:08;;;;;;;5.05;1.92;;;17.60;67.70;;;;;;5051367;28;20551;-72
2022/11/16 10:14:46;;;;;;;5.80;1.60;;;17.60;67.70;;;;;;5052016;28;20246;-72
2022/11/16 10:17:26;;;;;;;3.88;1.63;;;17.50;67.70;;;;;;5050363;28;20219;-72
2022/11/16 10:20:09;;;;;;;3.72;1.50;;;17.50;67.60;;;;;;5035586;28;20179;-72
2022/11/16 10:22:57;;;;;;;1.80;1.65;;;17.50;67.70;;;;;;5051217;28;20179;-71
2022/11/16 10:25:24;;;;;;;4.38;1.77;;;17.50;67.70;;;;;;5052164;28;20182;-72
2022/11/16 10:28:20;;;;;;;3.28;1.77;;;17.50;67.80;;;;;;5052184;28;20187;-72
2022/11/16 10:30:56;;;;;;;5.10;1.67;;;17.50;67.80;;;;;;5050146;28;20185;-72
2022/11/16 10:33:22;;;;;;;2.17;1.23;;;17.50;67.80;;;;;;5038474;28;20232;-75
2022/11/16 10:35:52;;;;;;;4.45;1.80;;;17.50;67.70;;;;;;5054567;28;20380;-73
2022/11/16 10:38:20;;;;;;;3.15;1.27;;;17.50;67.80;;;;;;5055418;28;20619;-72
2022/11/16 10:40:51;;;;;;;2.05;1.23;;;17.50;67.90;;;;;;5038060;28;20175;-72
2022/11/16 10:43:19;;;;;;;1.88;1.20;;;17.50;67.80;;;;;;5054143;28;20171;-71
2022/11/16 10:46:19;;;;;;;2.30;1.63;;;17.50;67.90;;;;;;5055527;28;20205;-72
2022/11/16 10:49:03;;;;;;;3.15;1.63;;;17.40;67.90;;;;;;5054427;28;20172;-72
2022/11/16 10:51:29;;;;;;;2.15;1.10;;;17.50;68.00;;;;;;5054677;28;20691;-72
2022/11/16 10:53:55;;;;;;;3.50;1.38;;;17.50;68.00;;;;;;5055597;28;20206;-72
2022/11/16 10:56:30;;;;;;;2.42;1.38;;;17.50;67.90;;;;;;5055496;28;20284;-72
2022/11/16 10:59:00;;;;;;;5.43;1.33;;;17.50;67.90;;;;;;5053898;28;20187;-72
2022/11/16 11:01:31;;;;;;;4.28;1.48;;;17.50;67.70;;;;;;5055791;28;20247;-72
2022/11/16 11:04:07;;;;;;;3.78;1.50;;;17.60;68.00;;;;;;5055494;28;20175;-73
2022/11/16 11:06:33;;;;;;;2.08;1.45;;;17.60;67.90;;;;;;5053299;28;20202;-73
2022/11/16 11:09:28;;;;;;;2.72;1.40;;;17.50;68.00;;;;;;5054187;28;20206;-72
2022/11/16 11:15:06;;;;;;;5.82;1.35;;;17.60;67.90;;;;;;5055055;28;20754;-71
2022/11/16 11:17:33;;;;;;;2.40;1.52;;;17.50;68.00;;;;;;5054719;28;20237;-71
2022/11/16 11:20:22;;;;;;;2.08;1.08;;;17.50;67.90;;;;;;5054672;28;20175;-71
2022/11/16 11:22:54;;;;;;;1.45;1.10;;;17.50;68.00;;;;;;5054911;28;20206;-71
2022/11/16 11:25:48;;;;;;;2.88;1.17;;;17.60;68.00;;;;;;5053942;28;20182;-70
2022/11/16 11:28:18;;;;;;;2.83;1.20;;;17.60;67.80;;;;;;5055302;28;20205;-71
2022/11/16 11:31:05;;;;;;;3.10;1.40;;;17.60;67.70;;;;;;5053585;28;20185;-71
2022/11/16 11:33:35;;;;;;;1.52;1.33;;;17.70;67.40;;;;;;5053930;28;20221;-72
2022/11/16 11:36:03;;;;;;;1.45;1.25;;;17.60;67.30;;;;;;5054855;28;20186;-72
2022/11/16 11:38:29;;;;;;;3.67;1.30;;;17.70;67.50;;;;;;5054717;28;20293;-72
2022/11/16 11:41:03;;;;;;;2.30;1.35;;;17.60;67.40;;;;;;5054301;28;20694;-71
2022/11/16 11:43:29;;;;;;;2.50;1.38;;;17.70;67.50;;;;;;5053922;28;20292;-71
2022/11/16 11:46:04;;;;;;;1.30;1.20;;;17.70;67.30;;;;;;5054592;28;20210;-70
2022/11/16 11:48:40;;;;;;;3.30;1.30;;;17.70;67.40;;;;;;5036213;28;20175;-70
2022/11/16 11:51:23;;;;;;;1.67;1.27;;;17.70;67.30;;;;;;5054737;28;20206;-71
2022/11/16 11:53:55;;;;;;;2.28;1.60;;;17.70;67.40;;;;;;5053772;28;20183;-72
2022/11/16 11:56:21;;;;;;;1.98;1.20;;;17.70;67.30;;;;;;5054305;28;20179;-71
2022/11/16 11:58:47;;;;;;;1.27;1.17;;;17.70;67.30;;;;;;5054092;28;20179;-71
2022/11/16 12:01:40;;;;;;;2.53;1.30;;;17.80;67.30;;;;;;5053541;28;20171;-71
2022/11/16 12:04:48;;;;;;;2.75;1.10;;;17.80;67.30;;;;;;5054393;28;20218;-71
2022/11/16 12:07:48;;;;;;;1.85;1.10;;;17.80;67.20;;;;;;5053206;28;20529;-71
2022/11/16 12:10:41;;;;;;;2.15;1.13;;;17.80;67.20;;;;;;5054154;28;20726;-71
2022/11/16 12:13:25;;;;;;;2.00;1.58;;;17.80;67.20;;;;;;5054110;28;20234;-71
2022/11/16 12:16:09;;;;;;;2.75;1.15;;;17.80;67.20;;;;;;5051929;28;20208;-71
2022/11/16 12:18:49;;;;;;;2.00;1.20;;;17.80;67.20;;;;;;5053937;28;20233;-71
2022/11/16 12:21:26;;;;;;;1.90;1.20;;;17.80;67.20;;;;;;5036954;28;20187;-71
2022/11/16 12:24:20;;;;;;;1.80;1.25;;;17.80;67.20;;;;;;5035947;28;20174;-71
2022/11/16 12:27:12;;;;;;;2.55;1.20;;;17.80;67.20;;;;;;5053639;28;20183;-70
2022/11/16 12:29:47;;;;;;;1.90;1.20;;;17.70;67.40;;;;;;5051862;28;20560;-71
2022/11/16 12:32:15;;;;;;;2.13;1.38;;;17.60;67.60;;;;;;5052615;28;20625;-73
2022/11/16 12:34:47;;;;;;;2.45;1.17;;;17.60;67.80;;;;;;5053585;28;20266;-71
2022/11/16 12:37:16;;;;;;;2.15;1.20;;;17.60;67.90;;;;;;5052726;28;20206;-71
2022/11/16 12:39:58;;;;;;;1.10;0.98;;;17.50;67.80;;;;;;5053485;28;20179;-71
2022/11/16 12:42:30;;;;;;;3.08;1.27;;;17.50;67.90;;;;;;5053648;28;20587;-71
2022/11/16 12:44:58;;;;;;;1.95;1.05;;;17.60;67.90;;;;;;5051375;28;20266;-70
2022/11/16 12:47:57;;;;;;;2.67;1.38;;;17.50;67.80;;;;;;5053669;28;20206;-69
2022/11/16 12:50:29;;;;;;;1.20;1.00;;;17.50;67.80;;;;;;5052806;28;20171;-70
2022/11/16 12:53:20;;;;;;;1.75;1.30;;;17.50;67.80;;;;;;5053515;28;20171;-71
2022/11/16 12:55:58;;;;;;;1.85;1.33;;;17.50;67.70;;;;;;5043249;28;20590;-71
2022/11/16 12:58:40;;;;;;;2.05;1.23;;;17.50;67.50;;;;;;5051364;28;20215;-70
2022/11/16 13:01:28;;;;;;;0.90;0.90;;;17.50;67.60;;;;;;5036532;28;20344;-71
2022/11/16 13:04:05;;;;;;;1.33;0.98;;;17.60;67.40;;;;;;5035622;28;20187;-71
2022/11/16 13:06:34;;;;;;;1.42;1.02;;;17.60;67.40;;;;;;5052849;28;20690;-71
2022/11/16 13:09:24;;;;;;;2.15;1.05;;;17.60;67.50;;;;;;5051952;28;20626;-71
2022/11/16 13:11:57;;;;;;;2.35;1.08;;;17.60;67.30;;;;;;5052101;28;20211;-71
2022/11/16 13:14:45;;;;;;;2.28;1.30;;;17.70;67.40;;;;;;5035932;28;20712;-71
2022/11/16 13:17:35;;;;;;;1.23;0.98;;;17.70;67.30;;;;;;5035874;28;20215;-72
2022/11/16 13:20:26;;;;;;;2.05;1.00;;;17.80;67.30;;;;;;5049391;28;20190;-71
2022/11/16 13:23:04;;;;;;;3.33;1.10;;;17.80;67.20;;;;;;5036089;28;20178;-71
2022/11/16 13:25:35;;;;;;;1.60;1.10;;;17.80;67.30;;;;;;5035500;28;20174;-71
2022/11/16 13:28:13;;;;;;;1.23;0.95;;;17.80;67.20;;;;;;5052984;28;20258;-71
2022/11/16 13:30:49;;;;;;;4.05;1.35;;;17.80;68.00;;;;;;5051614;28;20266;-71
2022/11/16 13:33:29;;;;;;;1.65;1.02;;;17.80;67.30;;;;;;5035213;28;20265;-73
2022/11/16 13:35:55;;;;;;;1.23;1.00;;;17.70;67.40;;;;;;5035527;28;20514;-71
2022/11/16 13:38:52;;;;;;;5.18;1.33;;;17.70;67.50;;;;;;5052772;28;20221;-71
2022/11/16 13:41:29;;;;;;;1.38;1.10;;;17.80;67.60;;;;;;5051938;28;20181;-71
2022/11/16 13:43:54;;;;;;;1.85;0.93;;;17.80;67.50;;;;;;5052843;28;20178;-71
2022/11/16 13:46:20;;;;;;;2.25;1.42;;;17.80;67.20;;;;;;5052167;28;20175;-70
2022/11/16 13:48:45;;;;;;;0.93;0.85;;;17.80;67.10;;;;;;5051315;28;20233;-71